createdAt,value
2017-10-09T00:00:44.868Z,4.72
2017-10-09T00:03:12.472Z,4.43
2017-10-09T00:05:40.847Z,4.65
2017-10-09T00:08:08.415Z,5.80
2017-10-09T00:10:36.024Z,4.18
2017-10-09T00:13:03.636Z,3.92
2017-10-09T00:15:31.257Z,4.20
2017-10-09T00:17:58.883Z,4.40
2017-10-09T00:20:26.507Z,4.10
2017-10-09T00:22:54.094Z,4.47
2017-10-09T00:25:21.703Z,4.00
2017-10-09T00:27:49.314Z,4.10
2017-10-09T00:30:16.926Z,3.87
2017-10-09T00:32:44.542Z,3.97
2017-10-09T00:35:12.151Z,3.75
2017-10-09T00:37:39.750Z,3.78
2017-10-09T00:40:07.359Z,3.42
2017-10-09T00:42:34.963Z,4.03
2017-10-09T00:45:03.338Z,3.60
2017-10-09T00:47:30.901Z,3.08
2017-10-09T00:49:58.523Z,3.37
2017-10-09T00:52:26.178Z,3.85
2017-10-09T00:54:53.779Z,3.37
2017-10-09T00:57:21.401Z,3.30
2017-10-09T00:59:49.006Z,3.58
2017-10-09T01:02:16.605Z,3.25
2017-10-09T01:04:44.214Z,3.25
2017-10-09T01:07:11.776Z,3.10
2017-10-09T01:09:39.430Z,3.20
2017-10-09T01:12:07.045Z,3.35
2017-10-09T01:14:34.654Z,3.70
2017-10-09T01:17:02.285Z,2.67
2017-10-09T01:19:29.890Z,3.00
2017-10-09T01:21:57.515Z,3.30
2017-10-09T01:24:25.118Z,3.25
2017-10-09T01:26:52.692Z,3.05
2017-10-09T01:29:20.300Z,3.75
2017-10-09T01:31:47.826Z,3.42
2017-10-09T01:34:15.421Z,3.78
2017-10-09T01:36:43.029Z,3.12
2017-10-09T01:39:10.673Z,3.47
2017-10-09T01:41:38.271Z,3.22
2017-10-09T01:44:05.886Z,3.87
2017-10-09T01:46:33.493Z,3.53
2017-10-09T01:49:01.052Z,3.85
2017-10-09T01:51:28.645Z,4.35
2017-10-09T01:53:56.254Z,4.43
2017-10-09T01:56:24.677Z,4.15
2017-10-09T01:58:52.278Z,3.83
2017-10-09T02:01:19.859Z,4.47
2017-10-09T02:03:47.418Z,3.83
2017-10-09T02:06:15.790Z,3.45
2017-10-09T02:08:44.158Z,4.32
2017-10-09T02:11:11.770Z,4.10
2017-10-09T02:13:39.371Z,4.57
2017-10-09T02:16:06.975Z,3.90
2017-10-09T02:18:34.574Z,4.28
2017-10-09T02:21:02.174Z,4.60
2017-10-09T02:23:30.538Z,4.28
2017-10-09T02:25:58.141Z,4.82
2017-10-09T02:28:25.743Z,4.30
2017-10-09T02:30:53.346Z,4.20
2017-10-09T02:33:20.945Z,4.43
2017-10-09T02:35:48.546Z,4.20
2017-10-09T02:38:16.145Z,4.15
2017-10-09T02:40:43.755Z,3.60
2017-10-09T02:43:11.356Z,3.40
2017-10-09T02:45:38.970Z,3.85
2017-10-09T02:48:06.574Z,3.90
2017-10-09T02:50:34.205Z,3.45
2017-10-09T02:53:01.806Z,4.25
2017-10-09T02:55:29.407Z,4.18
2017-10-09T02:57:56.975Z,4.70
2017-10-09T03:00:24.593Z,4.80
2017-10-09T03:02:52.198Z,5.62
2017-10-09T03:05:19.927Z,4.75
2017-10-09T03:07:47.534Z,5.00
2017-10-09T03:10:15.142Z,3.50
2017-10-09T03:12:42.806Z,4.70
2017-10-09T03:15:10.371Z,6.57
2017-10-09T03:17:37.946Z,7.37
2017-10-09T03:20:05.553Z,5.55
2017-10-09T03:22:51.798Z,10.77
2017-10-09T03:28:26.547Z,12.82
2017-10-09T03:30:54.159Z,12.02
2017-10-09T03:33:22.494Z,13.82
2017-10-09T03:35:50.102Z,13.65
2017-10-09T03:38:17.707Z,13.50
2017-10-09T03:40:45.314Z,15.77
2017-10-09T03:43:12.933Z,16.60
2017-10-09T03:45:40.554Z,18.40
2017-10-09T03:48:08.167Z,18.48
2017-10-09T03:50:35.778Z,20.35
2017-10-09T03:53:03.383Z,20.23
2017-10-09T03:55:31.011Z,20.30
2017-10-09T03:57:58.621Z,19.95
2017-10-09T04:00:26.273Z,20.12
2017-10-09T04:02:53.845Z,21.35
2017-10-09T04:05:21.454Z,21.73
2017-10-09T04:07:49.025Z,22.75
2017-10-09T04:10:16.630Z,22.13
2017-10-09T04:12:44.244Z,23.58
2017-10-09T04:15:11.859Z,22.77
2017-10-09T04:17:39.475Z,23.10
2017-10-09T04:20:07.082Z,23.10
2017-10-09T04:22:34.686Z,24.95
2017-10-09T04:25:02.251Z,23.98
2017-10-09T04:27:29.862Z,24.15
2017-10-09T04:29:57.492Z,24.75
2017-10-09T04:32:25.109Z,21.80
2017-10-09T04:34:53.478Z,24.48
2017-10-09T04:37:21.140Z,23.67
2017-10-09T04:39:49.528Z,24.60
2017-10-09T04:42:17.133Z,25.42
2017-10-09T04:44:44.742Z,25.08
2017-10-09T04:47:12.317Z,25.20
2017-10-09T04:49:39.910Z,26.48
2017-10-09T04:52:07.490Z,26.02
2017-10-09T04:54:35.102Z,26.17
2017-10-09T04:57:02.678Z,26.33
2017-10-09T04:59:30.288Z,25.30
2017-10-09T05:01:57.915Z,25.55
2017-10-09T05:04:25.583Z,25.75
2017-10-09T05:06:53.209Z,26.02
2017-10-09T05:09:20.817Z,24.27
2017-10-09T05:11:48.425Z,24.42
2017-10-09T05:14:16.040Z,27.45
2017-10-09T05:16:43.650Z,24.73
2017-10-09T05:19:11.294Z,26.35
2017-10-09T05:21:38.914Z,26.25
2017-10-09T05:24:06.537Z,25.55
2017-10-09T05:26:34.106Z,26.25
2017-10-09T05:29:01.672Z,28.23
2017-10-09T05:31:29.280Z,25.58
2017-10-09T05:33:56.907Z,24.40
2017-10-09T05:36:24.475Z,24.63
2017-10-09T05:38:52.087Z,27.08
2017-10-09T05:41:20.468Z,25.23
2017-10-09T05:43:48.800Z,26.65
2017-10-09T05:46:16.371Z,27.58
2017-10-09T05:48:43.980Z,24.42
2017-10-09T05:51:11.611Z,27.45
2017-10-09T05:53:39.178Z,25.10
2017-10-09T05:56:06.796Z,22.58
2017-10-09T05:58:34.368Z,21.70
2017-10-09T06:01:01.939Z,22.50
2017-10-09T06:03:29.512Z,20.90
2017-10-09T06:05:57.125Z,20.60
2017-10-09T06:08:24.740Z,20.62
2017-10-09T06:10:52.357Z,17.77
2017-10-09T06:13:19.926Z,19.00
2017-10-09T06:15:47.535Z,18.75
2017-10-09T06:18:15.165Z,18.05
2017-10-09T06:20:42.712Z,15.02
2017-10-09T06:23:10.323Z,14.43
2017-10-09T06:25:38.698Z,11.55
2017-10-09T06:28:07.081Z,11.90
2017-10-09T06:30:35.501Z,10.95
2017-10-09T06:33:03.122Z,12.05
2017-10-09T06:35:31.498Z,10.30
2017-10-09T06:37:59.067Z,9.20
2017-10-09T06:40:26.674Z,9.45
2017-10-09T06:42:54.236Z,8.10
2017-10-09T06:45:21.850Z,7.95
2017-10-09T06:47:49.469Z,7.35
2017-10-09T06:50:17.087Z,6.93
2017-10-09T06:52:44.660Z,7.40
2017-10-09T06:55:12.261Z,6.28
2017-10-09T06:57:39.872Z,6.80
2017-10-09T07:00:07.551Z,6.78
2017-10-09T07:02:35.118Z,6.10
2017-10-09T07:05:02.715Z,5.40
2017-10-09T07:07:30.318Z,6.25
2017-10-09T07:09:57.887Z,5.47
2017-10-09T07:12:25.493Z,5.68
2017-10-09T07:14:53.067Z,5.50
2017-10-09T07:17:21.446Z,6.12
2017-10-09T07:19:49.788Z,7.00
2017-10-09T07:22:17.479Z,6.40
2017-10-09T07:24:45.053Z,7.05
2017-10-09T07:27:12.682Z,7.55
2017-10-09T07:29:40.254Z,7.68
2017-10-09T07:32:08.056Z,7.50
2017-10-09T07:34:35.625Z,7.20
2017-10-09T07:37:03.280Z,7.85
2017-10-09T07:39:30.885Z,7.95
2017-10-09T07:41:58.494Z,8.50
2017-10-09T07:44:26.122Z,7.50
2017-10-09T07:46:53.740Z,10.82
2017-10-09T07:49:21.350Z,7.18
2017-10-09T07:51:48.979Z,7.75
2017-10-09T07:54:16.614Z,5.87
2017-10-09T07:56:44.231Z,10.85
2017-10-09T07:59:11.838Z,7.97
2017-10-09T08:01:39.421Z,5.10
2017-10-09T08:04:07.242Z,4.63
2017-10-09T08:06:34.878Z,5.60
2017-10-09T08:09:04.082Z,6.60
2017-10-09T08:11:31.696Z,4.55
2017-10-09T08:13:59.303Z,7.05
2017-10-09T08:16:26.916Z,4.70
2017-10-09T08:18:54.526Z,4.00
2017-10-09T08:21:22.111Z,4.70
2017-10-09T08:23:49.707Z,4.75
2017-10-09T08:26:17.313Z,5.35
2017-10-09T08:28:44.892Z,4.85
2017-10-09T08:31:12.501Z,4.93
2017-10-09T08:33:40.381Z,4.78
2017-10-09T08:36:07.990Z,4.75
2017-10-09T08:38:35.601Z,4.18
2017-10-09T08:41:03.215Z,4.85
2017-10-09T08:43:30.828Z,3.80
2017-10-09T08:45:58.478Z,4.32
2017-10-09T08:48:26.100Z,5.28
2017-10-09T08:50:53.704Z,4.30
2017-10-09T08:53:21.326Z,4.28
2017-10-09T08:55:48.933Z,5.47
2017-10-09T08:58:16.542Z,3.30
2017-10-09T09:00:44.161Z,5.28
2017-10-09T09:03:11.771Z,17.62
2017-10-09T09:05:39.345Z,4.32
2017-10-09T09:08:06.927Z,6.53
2017-10-09T09:10:34.531Z,2.90
2017-10-09T09:13:02.142Z,4.45
2017-10-09T09:15:29.725Z,3.20
2017-10-09T09:17:57.299Z,4.45
2017-10-09T09:20:24.911Z,3.00
2017-10-09T09:22:52.570Z,3.60
2017-10-09T09:25:20.188Z,2.72
2017-10-09T09:27:47.793Z,3.12
2017-10-09T09:30:16.170Z,2.85
2017-10-09T09:32:43.736Z,1.80
2017-10-09T09:35:11.346Z,2.70
2017-10-09T09:37:39.710Z,3.35
2017-10-09T09:40:07.331Z,2.40
2017-10-09T09:42:34.945Z,2.30
2017-10-09T09:45:03.350Z,1.63
2017-10-09T09:47:30.978Z,2.70
2017-10-09T09:49:58.553Z,1.47
2017-10-09T09:52:26.937Z,1.60
2017-10-09T09:54:54.563Z,3.10
2017-10-09T09:57:22.182Z,6.77
2017-10-09T09:59:49.791Z,5.17
2017-10-09T10:02:17.399Z,2.40
2017-10-09T10:04:44.986Z,2.17
2017-10-09T10:07:12.595Z,2.10
2017-10-09T10:09:40.633Z,2.25
2017-10-09T10:12:08.761Z,2.17
2017-10-09T10:14:36.626Z,1.50
2017-10-09T10:17:04.243Z,1.90
2017-10-09T10:19:31.855Z,1.35
2017-10-09T10:21:59.423Z,1.33
2017-10-09T10:24:27.073Z,1.30
2017-10-09T10:26:54.697Z,1.62
2017-10-09T10:29:22.316Z,1.73
2017-10-09T10:31:49.889Z,1.45
2017-10-09T10:34:17.507Z,1.90
2017-10-09T10:36:45.139Z,1.60
2017-10-09T10:39:12.724Z,1.87
2017-10-09T10:41:40.340Z,1.43
2017-10-09T10:44:07.953Z,1.60
2017-10-09T10:46:35.586Z,1.50
2017-10-09T10:49:03.974Z,1.80
2017-10-09T10:51:32.096Z,1.73
2017-10-09T10:54:01.061Z,1.67
2017-10-09T10:56:28.715Z,1.85
2017-10-09T10:58:56.346Z,1.50
2017-10-09T11:01:24.013Z,1.70
2017-10-09T11:03:51.677Z,1.40
2017-10-09T11:06:20.471Z,1.35
2017-10-09T11:08:48.865Z,1.50
2017-10-09T11:11:16.514Z,1.85
2017-10-09T11:13:44.146Z,1.60
2017-10-09T11:16:11.765Z,1.50
2017-10-09T11:18:39.397Z,1.73
2017-10-09T11:21:07.027Z,1.45
2017-10-09T11:23:34.645Z,1.85
2017-10-09T11:26:02.261Z,1.80
2017-10-09T11:28:30.781Z,1.60
2017-10-09T11:30:58.997Z,1.77
2017-10-09T11:33:26.623Z,2.20
2017-10-09T11:35:54.262Z,1.75
2017-10-09T11:38:22.624Z,1.70
2017-10-09T11:40:50.237Z,1.70
2017-10-09T11:43:17.839Z,4.50
2017-10-09T11:45:45.454Z,2.20
2017-10-09T11:48:13.062Z,1.90
2017-10-09T11:50:40.647Z,2.45
2017-10-09T11:53:09.024Z,2.00
2017-10-09T11:55:36.632Z,2.00
2017-10-09T11:58:04.202Z,2.55
2017-10-09T12:00:31.798Z,2.53
2017-10-09T12:02:59.402Z,2.30
2017-10-09T12:05:27.007Z,2.20
2017-10-09T12:07:54.579Z,2.70
2017-10-09T12:10:22.162Z,2.83
2017-10-09T12:12:49.776Z,2.60
2017-10-09T12:15:17.388Z,3.12
2017-10-09T12:17:44.972Z,3.25
2017-10-09T12:20:12.583Z,2.83
2017-10-09T12:22:40.199Z,2.60
2017-10-09T12:25:08.634Z,2.65
2017-10-09T12:27:37.022Z,3.00
2017-10-09T12:30:05.359Z,2.40
2017-10-09T12:32:32.965Z,2.65
2017-10-09T12:35:00.604Z,2.60
2017-10-09T12:37:28.214Z,2.50
2017-10-09T12:39:55.908Z,2.62
2017-10-09T12:42:23.488Z,2.72
2017-10-09T12:44:51.098Z,2.40
2017-10-09T12:47:18.702Z,2.70
2017-10-09T12:49:46.311Z,2.40
2017-10-09T12:52:14.954Z,2.53
2017-10-09T12:54:42.794Z,2.60
2017-10-09T12:57:10.430Z,2.00
2017-10-09T12:59:38.048Z,2.12
2017-10-09T13:02:05.632Z,2.35
2017-10-09T13:04:33.254Z,3.10
2017-10-09T13:07:00.866Z,2.62
2017-10-09T13:09:28.447Z,2.37
2017-10-09T13:11:56.082Z,2.50
2017-10-09T13:14:23.690Z,2.20
2017-10-09T13:16:51.306Z,2.45
2017-10-09T13:19:18.877Z,3.40
2017-10-09T13:21:46.457Z,2.50
2017-10-09T13:24:14.027Z,3.05
2017-10-09T13:26:41.649Z,3.78
2017-10-09T13:29:09.280Z,4.45
2017-10-09T13:31:36.897Z,3.22
2017-10-09T13:34:04.531Z,2.80
2017-10-09T13:36:32.143Z,2.60
2017-10-09T13:38:59.802Z,2.35
2017-10-09T13:41:27.418Z,2.80
2017-10-09T13:43:54.994Z,2.50
2017-10-09T13:46:22.631Z,3.45
2017-10-09T13:48:51.393Z,2.90
2017-10-09T13:51:19.004Z,2.40
2017-10-09T13:53:48.773Z,3.20
2017-10-09T13:56:17.162Z,3.30
2017-10-09T13:58:44.921Z,3.20
2017-10-09T14:01:13.731Z,3.20
2017-10-09T14:03:41.348Z,2.85
2017-10-09T14:06:08.983Z,3.20
2017-10-09T14:08:36.618Z,3.58
2017-10-09T14:11:05.729Z,2.72
2017-10-09T14:13:33.627Z,2.78
2017-10-09T14:16:01.304Z,2.72
2017-10-09T14:18:29.089Z,3.08
2017-10-09T14:20:56.766Z,2.53
2017-10-09T14:23:27.440Z,2.97
2017-10-09T14:25:55.175Z,2.55
2017-10-09T14:28:22.860Z,2.75
2017-10-09T14:30:50.517Z,2.40
2017-10-09T14:40:42.032Z,2.60
2017-10-09T14:43:10.409Z,2.10
2017-10-09T14:45:37.977Z,2.45
2017-10-09T14:48:05.698Z,1.90
2017-10-09T14:50:33.326Z,1.65
2017-10-09T14:53:00.932Z,1.90
2017-10-09T14:55:28.504Z,1.52
2017-10-09T14:57:56.118Z,1.70
2017-10-09T15:00:23.736Z,1.60
2017-10-09T15:02:51.466Z,2.10
2017-10-09T15:05:19.058Z,1.40
2017-10-09T15:07:47.452Z,1.42
2017-10-09T15:10:15.075Z,1.67
2017-10-09T15:12:42.734Z,1.83
2017-10-09T15:15:10.352Z,2.30
2017-10-09T15:17:37.967Z,2.30
2017-10-09T15:20:05.588Z,2.50
2017-10-09T15:22:33.208Z,3.65
2017-10-09T15:25:00.847Z,1.75
2017-10-09T15:27:28.462Z,1.85
2017-10-09T15:29:56.079Z,1.60
2017-10-09T15:32:23.643Z,2.00
2017-10-09T15:34:51.246Z,4.03
2017-10-09T15:37:18.840Z,1.85
2017-10-09T15:39:46.403Z,1.95
2017-10-09T15:42:13.983Z,2.00
2017-10-09T15:44:41.652Z,2.08
2017-10-09T15:47:09.226Z,2.62
2017-10-09T15:49:36.797Z,3.00
2017-10-09T15:52:04.411Z,3.05
2017-10-09T15:54:32.382Z,2.70
2017-10-09T15:56:59.977Z,2.30
2017-10-09T15:59:27.621Z,2.92
2017-10-09T16:01:55.229Z,3.08
2017-10-09T16:04:23.611Z,2.75
2017-10-09T16:06:51.180Z,3.35
2017-10-09T16:09:18.891Z,4.20
2017-10-09T16:11:46.502Z,5.50
2017-10-09T16:14:14.123Z,7.18
2017-10-09T16:16:42.469Z,7.28
2017-10-09T16:19:10.122Z,12.77
2017-10-09T16:21:37.699Z,9.27
2017-10-09T16:24:05.283Z,25.27
2017-10-09T16:26:32.942Z,19.30
2017-10-09T16:29:01.314Z,14.27
2017-10-09T16:31:28.937Z,11.93
2017-10-09T16:33:56.559Z,13.02
2017-10-09T16:36:24.173Z,12.13
2017-10-09T16:38:51.921Z,14.20
2017-10-09T16:41:19.534Z,12.98
2017-10-09T16:43:47.913Z,14.73
2017-10-09T16:46:16.325Z,15.43
2017-10-09T16:48:44.054Z,16.42
2017-10-09T16:51:11.671Z,13.48
2017-10-09T16:53:39.327Z,12.73
2017-10-09T16:56:06.946Z,12.68
2017-10-09T16:58:34.858Z,12.60
2017-10-09T17:01:02.470Z,11.60
2017-10-09T17:03:30.134Z,12.70
2017-10-09T17:05:57.742Z,10.40
2017-10-09T17:08:25.446Z,7.93
2017-10-09T17:10:53.060Z,8.20
2017-10-09T17:13:20.663Z,6.65
2017-10-09T17:15:48.311Z,6.47
2017-10-09T17:18:15.911Z,6.60
2017-10-09T17:20:43.522Z,6.57
2017-10-09T17:23:11.141Z,6.12
2017-10-09T17:25:38.750Z,8.27
2017-10-09T17:28:06.327Z,7.15
2017-10-09T17:30:33.934Z,7.93
2017-10-09T17:33:01.508Z,7.95
2017-10-09T17:35:29.074Z,8.18
2017-10-09T17:37:56.690Z,9.93
2017-10-09T17:40:24.317Z,8.65
2017-10-09T17:42:51.926Z,10.10
2017-10-09T17:45:19.617Z,10.63
2017-10-09T17:47:47.225Z,8.70
2017-10-09T17:50:14.843Z,9.65
2017-10-09T17:52:42.452Z,10.00
2017-10-09T17:55:10.097Z,8.68
2017-10-09T17:57:37.675Z,9.45
2017-10-09T18:00:05.291Z,8.50
2017-10-09T18:02:32.910Z,9.35
2017-10-09T18:05:00.517Z,9.13
2017-10-09T18:07:28.131Z,9.93
2017-10-09T18:09:55.763Z,9.02
2017-10-09T18:12:23.330Z,8.60
2017-10-09T18:14:50.944Z,8.00
2017-10-09T18:17:18.628Z,8.05
2017-10-09T18:19:46.232Z,7.55
2017-10-09T18:22:13.943Z,6.30
2017-10-09T18:24:41.545Z,6.32
2017-10-09T18:27:09.120Z,5.40
2017-10-09T18:29:37.547Z,6.40
2017-10-09T18:32:05.119Z,6.10
2017-10-09T18:34:32.695Z,6.80
2017-10-09T18:37:00.351Z,6.07
2017-10-09T18:39:28.038Z,6.45
2017-10-09T18:41:56.428Z,6.70
2017-10-09T18:44:24.037Z,6.82
2017-10-09T18:46:51.643Z,9.32
2017-10-09T18:49:19.207Z,9.10
2017-10-09T18:51:47.714Z,10.20
2017-10-09T18:54:15.322Z,11.38
2017-10-09T18:56:42.953Z,10.52
2017-10-09T18:59:10.542Z,11.38
2017-10-09T19:01:39.354Z,10.15
2017-10-09T19:04:07.745Z,10.05
2017-10-09T19:06:35.361Z,9.07
2017-10-09T19:09:02.994Z,9.35
2017-10-09T19:11:30.620Z,7.95
2017-10-09T19:13:58.279Z,8.00
2017-10-09T19:16:25.890Z,8.50
2017-10-09T19:18:53.507Z,7.82
2017-10-09T19:21:21.885Z,8.18
2017-10-09T19:23:49.491Z,8.85
2017-10-09T19:26:17.115Z,9.35
2017-10-09T19:28:44.774Z,9.73
2017-10-09T19:31:12.448Z,8.07
2017-10-09T19:33:40.066Z,8.52
2017-10-09T19:36:07.706Z,8.27
2017-10-09T19:38:35.337Z,9.05
2017-10-09T19:41:03.942Z,8.98
2017-10-09T19:43:31.790Z,8.40
2017-10-09T19:45:59.359Z,8.77
2017-10-09T19:48:28.168Z,9.45
2017-10-09T19:50:55.788Z,7.55
2017-10-09T19:53:23.410Z,8.32
2017-10-09T19:55:51.036Z,6.93
2017-10-09T19:58:18.647Z,6.87
2017-10-09T20:00:46.285Z,6.87
2017-10-09T20:03:14.110Z,6.35
2017-10-09T20:05:42.550Z,6.78
2017-10-09T20:08:10.173Z,6.60
2017-10-09T20:10:37.755Z,7.03
2017-10-09T20:13:05.955Z,6.68
2017-10-09T20:15:33.566Z,7.60
2017-10-09T20:18:01.171Z,6.60
2017-10-09T20:20:28.846Z,6.47
2017-10-09T20:22:56.466Z,6.82
2017-10-09T20:25:24.254Z,6.60
2017-10-09T20:27:51.859Z,6.85
2017-10-09T20:30:19.477Z,6.40
2017-10-09T20:32:47.090Z,5.85
2017-10-09T20:35:14.787Z,6.43
2017-10-09T20:37:42.400Z,5.90
2017-10-09T20:40:10.047Z,6.15
2017-10-09T20:42:37.657Z,6.12
2017-10-09T20:45:05.323Z,6.93
2017-10-09T20:47:32.933Z,6.12
2017-10-09T20:50:01.302Z,5.68
2017-10-09T20:52:29.674Z,5.85
2017-10-09T20:54:58.046Z,5.93
2017-10-09T20:57:25.663Z,5.78
2017-10-09T20:59:53.263Z,6.47
2017-10-09T21:02:20.867Z,7.30
2017-10-09T21:04:48.440Z,9.63
2017-10-09T21:07:16.018Z,12.27
2017-10-09T21:09:43.622Z,15.75
2017-10-09T21:12:11.232Z,14.02
2017-10-09T21:14:38.838Z,12.40
2017-10-09T21:17:06.443Z,12.45
2017-10-09T21:19:34.098Z,11.20
2017-10-09T21:22:01.703Z,10.55
2017-10-09T21:24:29.367Z,11.80
2017-10-09T21:26:56.985Z,12.57
2017-10-09T21:29:24.597Z,13.62
2017-10-09T21:31:52.994Z,16.83
2017-10-09T21:34:21.383Z,17.80
2017-10-09T21:36:48.995Z,20.27
2017-10-09T21:39:16.610Z,18.87
2017-10-09T21:41:44.269Z,18.25
2017-10-09T21:44:11.890Z,14.30
2017-10-09T21:46:39.478Z,9.05
2017-10-09T21:49:07.281Z,8.20
2017-10-09T21:51:34.882Z,8.32
2017-10-09T21:54:02.497Z,7.90
2017-10-09T21:56:30.097Z,7.60
2017-10-09T21:58:57.854Z,7.95
2017-10-09T22:01:25.454Z,7.78
2017-10-09T22:03:53.834Z,7.15
2017-10-09T22:06:21.445Z,7.18
2017-10-09T22:08:49.051Z,8.13
2017-10-09T22:11:16.615Z,6.78
2017-10-09T22:13:44.992Z,7.55
2017-10-09T22:16:13.325Z,8.43
2017-10-09T22:18:40.932Z,7.50
2017-10-09T22:21:08.539Z,7.15
2017-10-09T22:23:36.150Z,9.13
2017-10-09T22:26:04.536Z,8.60
2017-10-09T22:28:32.881Z,9.15
2017-10-09T22:31:00.462Z,8.48
2017-10-09T22:33:28.078Z,8.07
2017-10-09T22:35:55.680Z,7.62
2017-10-09T22:38:23.282Z,7.72
2017-10-09T22:40:50.859Z,8.30
2017-10-09T22:43:18.462Z,7.43
2017-10-09T22:45:46.078Z,8.20
2017-10-09T22:48:13.642Z,8.07
2017-10-09T22:50:41.245Z,7.68
2017-10-09T22:53:08.897Z,7.65
2017-10-09T22:55:36.503Z,8.10
2017-10-09T22:58:04.115Z,7.82
2017-10-09T23:00:31.722Z,8.20
2017-10-09T23:02:59.327Z,7.60
2017-10-09T23:05:26.941Z,8.23
2017-10-09T23:07:54.551Z,8.70
2017-10-09T23:10:22.178Z,7.50
2017-10-09T23:12:49.798Z,8.00
2017-10-09T23:15:18.170Z,8.30
2017-10-09T23:17:45.775Z,7.82
2017-10-09T23:20:13.372Z,7.65
2017-10-09T23:22:40.983Z,8.55
2017-10-09T23:25:08.551Z,7.82
2017-10-09T23:27:36.160Z,7.80
2017-10-09T23:30:03.775Z,7.85
2017-10-09T23:32:31.382Z,8.02
2017-10-09T23:34:58.990Z,7.07
2017-10-09T23:37:26.607Z,8.40
2017-10-09T23:39:54.215Z,7.55
2017-10-09T23:42:21.833Z,8.23
2017-10-09T23:44:49.441Z,7.57
2017-10-09T23:47:17.051Z,8.20
2017-10-09T23:49:44.658Z,7.85
2017-10-09T23:52:12.312Z,9.20
2017-10-09T23:54:39.937Z,10.13
2017-10-09T23:57:07.546Z,10.07
2017-10-09T23:59:35.146Z,9.57
